sensor_id;sensor_type;location;lat;lon;timestamp;P1;durP1;ratioP1;P2;durP2;ratioP2
31336;SDS011;22846;42.654;23.314;2023-08-24T00:01:11;15.48;;;10.98;;
31336;SDS011;22846;42.654;23.314;2023-08-24T00:03:41;14.20;;;10.32;;
31336;SDS011;22846;42.654;23.314;2023-08-24T00:06:08;14.65;;;11.07;;
31336;SDS011;22846;42.654;23.314;2023-08-24T00:08:34;12.32;;;10.82;;
31336;SDS011;22846;42.654;23.314;2023-08-24T00:10:59;15.43;;;11.23;;
31336;SDS011;22846;42.654;23.314;2023-08-24T00:13:25;17.25;;;10.90;;
31336;SDS011;22846;42.654;23.314;2023-08-24T00:15:51;12.68;;;10.82;;
31336;SDS011;22846;42.654;23.314;2023-08-24T00:18:19;15.52;;;11.30;;
31336;SDS011;22846;42.654;23.314;2023-08-24T00:20:46;12.13;;;10.70;;
31336;SDS011;22846;42.654;23.314;2023-08-24T00:23:12;15.75;;;11.00;;
31336;SDS011;22846;42.654;23.314;2023-08-24T00:25:38;13.77;;;11.20;;
31336;SDS011;22846;42.654;23.314;2023-08-24T00:28:05;14.38;;;10.88;;
31336;SDS011;22846;42.654;23.314;2023-08-24T00:30:30;16.55;;;11.63;;
31336;SDS011;22846;42.654;23.314;2023-08-24T00:32:56;13.95;;;11.20;;
31336;SDS011;22846;42.654;23.314;2023-08-24T00:35:21;13.60;;;10.90;;
31336;SDS011;22846;42.654;23.314;2023-08-24T00:37:46;15.18;;;10.93;;
31336;SDS011;22846;42.654;23.314;2023-08-24T00:40:12;14.35;;;10.93;;
31336;SDS011;22846;42.654;23.314;2023-08-24T00:42:38;15.70;;;10.73;;
31336;SDS011;22846;42.654;23.314;2023-08-24T00:45:05;13.40;;;10.52;;
31336;SDS011;22846;42.654;23.314;2023-08-24T00:47:30;12.63;;;10.63;;
31336;SDS011;22846;42.654;23.314;2023-08-24T00:49:56;13.75;;;11.20;;
31336;SDS011;22846;42.654;23.314;2023-08-24T00:52:24;12.32;;;11.00;;
31336;SDS011;22846;42.654;23.314;2023-08-24T00:54:52;15.40;;;11.30;;
31336;SDS011;22846;42.654;23.314;2023-08-24T00:57:17;13.45;;;10.65;;
31336;SDS011;22846;42.654;23.314;2023-08-24T00:59:43;15.18;;;10.73;;
31336;SDS011;22846;42.654;23.314;2023-08-24T01:02:08;12.05;;;10.75;;
31336;SDS011;22846;42.654;23.314;2023-08-24T01:04:34;11.77;;;10.30;;
31336;SDS011;22846;42.654;23.314;2023-08-24T01:06:59;16.77;;;10.70;;
31336;SDS011;22846;42.654;23.314;2023-08-24T01:09:24;17.60;;;10.88;;
31336;SDS011;22846;42.654;23.314;2023-08-24T01:17:09;13.90;;;10.85;;
31336;SDS011;22846;42.654;23.314;2023-08-24T01:27:40;13.15;;;11.07;;
31336;SDS011;22846;42.654;23.314;2023-08-24T01:30:07;18.48;;;11.57;;
31336;SDS011;22846;42.654;23.314;2023-08-24T01:32:34;14.52;;;10.93;;
31336;SDS011;22846;42.654;23.314;2023-08-24T01:35:07;13.50;;;11.07;;
31336;SDS011;22846;42.654;23.314;2023-08-24T01:37:34;15.48;;;11.60;;
31336;SDS011;22846;42.654;23.314;2023-08-24T01:40:12;14.85;;;11.07;;
31336;SDS011;22846;42.654;23.314;2023-08-24T01:43:03;20.73;;;12.32;;
31336;SDS011;22846;42.654;23.314;2023-08-24T01:45:29;13.75;;;11.45;;
31336;SDS011;22846;42.654;23.314;2023-08-24T01:47:56;15.18;;;10.85;;
31336;SDS011;22846;42.654;23.314;2023-08-24T01:50:24;14.18;;;10.82;;
31336;SDS011;22846;42.654;23.314;2023-08-24T01:52:49;17.55;;;11.93;;
31336;SDS011;22846;42.654;23.314;2023-08-24T01:55:18;15.35;;;11.27;;
31336;SDS011;22846;42.654;23.314;2023-08-24T01:57:44;16.30;;;11.70;;
31336;SDS011;22846;42.654;23.314;2023-08-24T02:00:10;16.33;;;11.00;;
31336;SDS011;22846;42.654;23.314;2023-08-24T02:02:35;16.38;;;11.65;;
31336;SDS011;22846;42.654;23.314;2023-08-24T02:05:04;14.43;;;11.70;;
31336;SDS011;22846;42.654;23.314;2023-08-24T02:07:30;14.13;;;11.25;;
31336;SDS011;22846;42.654;23.314;2023-08-24T02:09:55;14.38;;;11.68;;
31336;SDS011;22846;42.654;23.314;2023-08-24T02:12:21;16.58;;;11.60;;
31336;SDS011;22846;42.654;23.314;2023-08-24T02:14:46;16.70;;;11.52;;
31336;SDS011;22846;42.654;23.314;2023-08-24T02:17:12;13.57;;;11.23;;
31336;SDS011;22846;42.654;23.314;2023-08-24T02:19:37;12.77;;;11.25;;
31336;SDS011;22846;42.654;23.314;2023-08-24T02:22:02;15.25;;;11.52;;
31336;SDS011;22846;42.654;23.314;2023-08-24T02:24:28;13.48;;;10.93;;
31336;SDS011;22846;42.654;23.314;2023-08-24T02:26:53;17.75;;;11.52;;
31336;SDS011;22846;42.654;23.314;2023-08-24T02:29:18;15.23;;;10.88;;
31336;SDS011;22846;42.654;23.314;2023-08-24T02:31:44;13.90;;;10.25;;
31336;SDS011;22846;42.654;23.314;2023-08-24T02:34:09;13.85;;;10.82;;
31336;SDS011;22846;42.654;23.314;2023-08-24T02:36:35;12.98;;;10.63;;
31336;SDS011;22846;42.654;23.314;2023-08-24T02:39:00;13.18;;;11.10;;
31336;SDS011;22846;42.654;23.314;2023-08-24T02:41:26;17.13;;;11.95;;
31336;SDS011;22846;42.654;23.314;2023-08-24T02:43:52;14.13;;;10.93;;
31336;SDS011;22846;42.654;23.314;2023-08-24T02:46:17;16.25;;;11.95;;
31336;SDS011;22846;42.654;23.314;2023-08-24T02:48:46;14.43;;;10.88;;
31336;SDS011;22846;42.654;23.314;2023-08-24T02:51:11;14.95;;;11.73;;
31336;SDS011;22846;42.654;23.314;2023-08-24T02:53:38;19.25;;;11.77;;
31336;SDS011;22846;42.654;23.314;2023-08-24T02:56:04;14.30;;;11.85;;
31336;SDS011;22846;42.654;23.314;2023-08-24T02:58:29;14.90;;;11.85;;
31336;SDS011;22846;42.654;23.314;2023-08-24T03:00:55;15.25;;;11.75;;
31336;SDS011;22846;42.654;23.314;2023-08-24T03:03:21;14.98;;;12.43;;
31336;SDS011;22846;42.654;23.314;2023-08-24T03:05:53;15.98;;;12.07;;
31336;SDS011;22846;42.654;23.314;2023-08-24T03:08:23;15.00;;;11.55;;
31336;SDS011;22846;42.654;23.314;2023-08-24T03:10:49;17.75;;;12.18;;
31336;SDS011;22846;42.654;23.314;2023-08-24T03:13:14;17.75;;;12.38;;
31336;SDS011;22846;42.654;23.314;2023-08-24T03:15:39;16.65;;;12.23;;
31336;SDS011;22846;42.654;23.314;2023-08-24T03:18:05;16.63;;;12.20;;
31336;SDS011;22846;42.654;23.314;2023-08-24T03:20:30;14.88;;;12.05;;
31336;SDS011;22846;42.654;23.314;2023-08-24T03:22:56;16.40;;;12.20;;
31336;SDS011;22846;42.654;23.314;2023-08-24T03:25:22;16.40;;;12.55;;
31336;SDS011;22846;42.654;23.314;2023-08-24T03:27:48;19.67;;;12.52;;
31336;SDS011;22846;42.654;23.314;2023-08-24T03:30:13;14.40;;;11.95;;
31336;SDS011;22846;42.654;23.314;2023-08-24T03:32:39;18.92;;;11.98;;
31336;SDS011;22846;42.654;23.314;2023-08-24T03:35:06;12.75;;;11.45;;
31336;SDS011;22846;42.654;23.314;2023-08-24T03:37:32;19.33;;;11.95;;
31336;SDS011;22846;42.654;23.314;2023-08-24T03:39:57;16.27;;;12.20;;
31336;SDS011;22846;42.654;23.314;2023-08-24T03:42:23;16.50;;;12.48;;
31336;SDS011;22846;42.654;23.314;2023-08-24T03:44:48;17.23;;;12.70;;
31336;SDS011;22846;42.654;23.314;2023-08-24T03:47:14;15.32;;;12.60;;
31336;SDS011;22846;42.654;23.314;2023-08-24T03:49:41;17.73;;;12.77;;
31336;SDS011;22846;42.654;23.314;2023-08-24T03:52:07;19.42;;;13.13;;
31336;SDS011;22846;42.654;23.314;2023-08-24T03:54:33;16.38;;;12.73;;
31336;SDS011;22846;42.654;23.314;2023-08-24T03:56:58;14.10;;;12.07;;
31336;SDS011;22846;42.654;23.314;2023-08-24T03:59:23;16.02;;;12.60;;
31336;SDS011;22846;42.654;23.314;2023-08-24T04:01:49;17.73;;;12.70;;
31336;SDS011;22846;42.654;23.314;2023-08-24T04:04:14;15.80;;;12.25;;
31336;SDS011;22846;42.654;23.314;2023-08-24T04:06:40;18.42;;;13.02;;
31336;SDS011;22846;42.654;23.314;2023-08-24T04:09:05;19.23;;;12.98;;
31336;SDS011;22846;42.654;23.314;2023-08-24T04:11:31;17.48;;;13.07;;
31336;SDS011;22846;42.654;23.314;2023-08-24T04:13:57;20.88;;;13.48;;
31336;SDS011;22846;42.654;23.314;2023-08-24T04:16:22;16.77;;;13.45;;
31336;SDS011;22846;42.654;23.314;2023-08-24T04:18:47;17.83;;;13.20;;
31336;SDS011;22846;42.654;23.314;2023-08-24T04:21:13;18.38;;;13.32;;
31336;SDS011;22846;42.654;23.314;2023-08-24T04:23:38;17.50;;;12.85;;
31336;SDS011;22846;42.654;23.314;2023-08-24T04:26:10;18.17;;;13.40;;
31336;SDS011;22846;42.654;23.314;2023-08-24T04:28:36;19.17;;;14.52;;
31336;SDS011;22846;42.654;23.314;2023-08-24T04:31:01;19.33;;;14.77;;
31336;SDS011;22846;42.654;23.314;2023-08-24T04:33:27;17.63;;;13.95;;
31336;SDS011;22846;42.654;23.314;2023-08-24T04:35:52;23.38;;;14.30;;
31336;SDS011;22846;42.654;23.314;2023-08-24T04:38:18;19.95;;;13.43;;
31336;SDS011;22846;42.654;23.314;2023-08-24T04:40:55;17.75;;;13.10;;
31336;SDS011;22846;42.654;23.314;2023-08-24T04:43:22;19.52;;;12.02;;
31336;SDS011;22846;42.654;23.314;2023-08-24T04:45:49;22.08;;;12.80;;
31336;SDS011;22846;42.654;23.314;2023-08-24T04:48:22;23.23;;;12.50;;
31336;SDS011;22846;42.654;23.314;2023-08-24T04:50:48;17.55;;;12.32;;
31336;SDS011;22846;42.654;23.314;2023-08-24T04:53:16;19.83;;;12.52;;
31336;SDS011;22846;42.654;23.314;2023-08-24T04:55:42;20.33;;;12.55;;
31336;SDS011;22846;42.654;23.314;2023-08-24T04:58:08;14.65;;;12.68;;
31336;SDS011;22846;42.654;23.314;2023-08-24T05:00:34;15.25;;;11.80;;
31336;SDS011;22846;42.654;23.314;2023-08-24T05:03:01;21.00;;;13.52;;
31336;SDS011;22846;42.654;23.314;2023-08-24T05:05:28;46.13;;;29.75;;
31336;SDS011;22846;42.654;23.314;2023-08-24T05:07:54;37.40;;;22.38;;
31336;SDS011;22846;42.654;23.314;2023-08-24T05:10:20;43.05;;;19.65;;
31336;SDS011;22846;42.654;23.314;2023-08-24T05:12:45;33.33;;;20.85;;
31336;SDS011;22846;42.654;23.314;2023-08-24T05:15:11;30.75;;;20.02;;
31336;SDS011;22846;42.654;23.314;2023-08-24T05:17:38;36.95;;;19.90;;
31336;SDS011;22846;42.654;23.314;2023-08-24T05:20:03;33.03;;;19.33;;
31336;SDS011;22846;42.654;23.314;2023-08-24T05:22:29;28.42;;;18.88;;
31336;SDS011;22846;42.654;23.314;2023-08-24T05:24:54;30.88;;;18.17;;
31336;SDS011;22846;42.654;23.314;2023-08-24T05:27:20;28.88;;;17.33;;
31336;SDS011;22846;42.654;23.314;2023-08-24T05:29:45;27.33;;;16.95;;
31336;SDS011;22846;42.654;23.314;2023-08-24T05:32:10;29.60;;;16.98;;
31336;SDS011;22846;42.654;23.314;2023-08-24T05:34:36;24.05;;;15.88;;
31336;SDS011;22846;42.654;23.314;2023-08-24T05:37:01;29.38;;;16.02;;
31336;SDS011;22846;42.654;23.314;2023-08-24T05:39:26;22.80;;;15.05;;
31336;SDS011;22846;42.654;23.314;2023-08-24T05:41:52;21.70;;;14.02;;
31336;SDS011;22846;42.654;23.314;2023-08-24T05:44:18;20.92;;;13.68;;
31336;SDS011;22846;42.654;23.314;2023-08-24T05:46:44;22.08;;;14.32;;
31336;SDS011;22846;42.654;23.314;2023-08-24T05:49:10;20.15;;;13.38;;
31336;SDS011;22846;42.654;23.314;2023-08-24T05:51:36;21.45;;;13.63;;
31336;SDS011;22846;42.654;23.314;2023-08-24T05:54:02;16.52;;;12.73;;
31336;SDS011;22846;42.654;23.314;2023-08-24T05:56:28;18.10;;;13.40;;
31336;SDS011;22846;42.654;23.314;2023-08-24T05:58:53;20.02;;;12.63;;
31336;SDS011;22846;42.654;23.314;2023-08-24T06:01:19;19.90;;;13.40;;
31336;SDS011;22846;42.654;23.314;2023-08-24T06:03:45;18.67;;;13.13;;
31336;SDS011;22846;42.654;23.314;2023-08-24T06:06:10;23.35;;;13.73;;
31336;SDS011;22846;42.654;23.314;2023-08-24T06:08:35;19.02;;;12.85;;
31336;SDS011;22846;42.654;23.314;2023-08-24T06:11:01;21.27;;;13.68;;
31336;SDS011;22846;42.654;23.314;2023-08-24T06:13:27;17.23;;;12.65;;
31336;SDS011;22846;42.654;23.314;2023-08-24T06:15:53;19.70;;;12.32;;
31336;SDS011;22846;42.654;23.314;2023-08-24T06:18:19;22.98;;;12.85;;
31336;SDS011;22846;42.654;23.314;2023-08-24T06:20:45;18.83;;;11.77;;
31336;SDS011;22846;42.654;23.314;2023-08-24T06:23:13;19.35;;;13.38;;
31336;SDS011;22846;42.654;23.314;2023-08-24T06:25:39;17.73;;;12.10;;
31336;SDS011;22846;42.654;23.314;2023-08-24T06:28:04;16.67;;;13.02;;
31336;SDS011;22846;42.654;23.314;2023-08-24T06:30:30;15.98;;;11.82;;
31336;SDS011;22846;42.654;23.314;2023-08-24T06:33:02;19.13;;;13.10;;
31336;SDS011;22846;42.654;23.314;2023-08-24T06:35:29;16.20;;;12.10;;
31336;SDS011;22846;42.654;23.314;2023-08-24T06:37:54;17.40;;;12.02;;
31336;SDS011;22846;42.654;23.314;2023-08-24T06:40:19;16.20;;;12.27;;
31336;SDS011;22846;42.654;23.314;2023-08-24T06:42:45;14.55;;;11.90;;
31336;SDS011;22846;42.654;23.314;2023-08-24T06:45:10;15.65;;;11.73;;
31336;SDS011;22846;42.654;23.314;2023-08-24T06:47:36;17.92;;;11.68;;
31336;SDS011;22846;42.654;23.314;2023-08-24T06:50:02;16.10;;;11.80;;
31336;SDS011;22846;42.654;23.314;2023-08-24T06:52:27;14.00;;;11.38;;
31336;SDS011;22846;42.654;23.314;2023-08-24T06:54:53;15.05;;;11.43;;
31336;SDS011;22846;42.654;23.314;2023-08-24T06:57:20;18.10;;;11.85;;
31336;SDS011;22846;42.654;23.314;2023-08-24T06:59:46;12.57;;;10.45;;
31336;SDS011;22846;42.654;23.314;2023-08-24T07:02:11;14.27;;;10.95;;
31336;SDS011;22846;42.654;23.314;2023-08-24T07:04:37;15.52;;;11.55;;
31336;SDS011;22846;42.654;23.314;2023-08-24T07:07:05;16.33;;;11.27;;
31336;SDS011;22846;42.654;23.314;2023-08-24T07:09:31;14.98;;;10.35;;
31336;SDS011;22846;42.654;23.314;2023-08-24T07:11:56;16.13;;;11.32;;
31336;SDS011;22846;42.654;23.314;2023-08-24T07:14:21;12.73;;;11.27;;
31336;SDS011;22846;42.654;23.314;2023-08-24T07:16:47;14.93;;;10.85;;
31336;SDS011;22846;42.654;23.314;2023-08-24T07:19:12;11.73;;;10.25;;
31336;SDS011;22846;42.654;23.314;2023-08-24T07:21:38;14.00;;;10.75;;
31336;SDS011;22846;42.654;23.314;2023-08-24T07:24:04;12.70;;;10.02;;
31336;SDS011;22846;42.654;23.314;2023-08-24T07:26:29;16.02;;;10.20;;
31336;SDS011;22846;42.654;23.314;2023-08-24T07:28:55;13.63;;;9.75;;
31336;SDS011;22846;42.654;23.314;2023-08-24T07:31:21;14.10;;;10.88;;
31336;SDS011;22846;42.654;23.314;2023-08-24T07:33:47;11.63;;;10.05;;
31336;SDS011;22846;42.654;23.314;2023-08-24T07:36:13;12.82;;;10.43;;
31336;SDS011;22846;42.654;23.314;2023-08-24T07:38:39;13.18;;;10.25;;
31336;SDS011;22846;42.654;23.314;2023-08-24T07:41:05;13.10;;;9.88;;
31336;SDS011;22846;42.654;23.314;2023-08-24T07:43:31;12.00;;;10.00;;
31336;SDS011;22846;42.654;23.314;2023-08-24T07:45:57;12.95;;;9.57;;
31336;SDS011;22846;42.654;23.314;2023-08-24T07:48:23;12.93;;;9.77;;
31336;SDS011;22846;42.654;23.314;2023-08-24T07:50:48;11.35;;;9.90;;
31336;SDS011;22846;42.654;23.314;2023-08-24T07:53:14;12.57;;;9.50;;
31336;SDS011;22846;42.654;23.314;2023-08-24T07:55:39;11.60;;;9.98;;
31336;SDS011;22846;42.654;23.314;2023-08-24T07:58:05;12.93;;;10.30;;
31336;SDS011;22846;42.654;23.314;2023-08-24T08:00:31;12.77;;;10.07;;
31336;SDS011;22846;42.654;23.314;2023-08-24T08:02:57;10.77;;;9.38;;
31336;SDS011;22846;42.654;23.314;2023-08-24T08:05:23;11.07;;;9.10;;
31336;SDS011;22846;42.654;23.314;2023-08-24T08:07:48;11.95;;;9.27;;
31336;SDS011;22846;42.654;23.314;2023-08-24T08:10:14;13.60;;;9.63;;
31336;SDS011;22846;42.654;23.314;2023-08-24T08:12:42;11.13;;;9.20;;
31336;SDS011;22846;42.654;23.314;2023-08-24T08:15:07;11.98;;;8.55;;
31336;SDS011;22846;42.654;23.314;2023-08-24T08:17:33;10.18;;;8.98;;
31336;SDS011;22846;42.654;23.314;2023-08-24T08:19:58;11.43;;;9.18;;
31336;SDS011;22846;42.654;23.314;2023-08-24T08:22:24;11.55;;;8.98;;
31336;SDS011;22846;42.654;23.314;2023-08-24T08:24:50;11.10;;;9.35;;
31336;SDS011;22846;42.654;23.314;2023-08-24T08:27:16;10.60;;;8.85;;
31336;SDS011;22846;42.654;23.314;2023-08-24T08:29:41;13.07;;;9.35;;
31336;SDS011;22846;42.654;23.314;2023-08-24T08:32:07;10.20;;;8.95;;
31336;SDS011;22846;42.654;23.314;2023-08-24T08:34:33;11.32;;;8.88;;
31336;SDS011;22846;42.654;23.314;2023-08-24T08:36:58;11.88;;;8.68;;
31336;SDS011;22846;42.654;23.314;2023-08-24T08:39:24;11.55;;;8.93;;
31336;SDS011;22846;42.654;23.314;2023-08-24T08:41:49;12.82;;;9.25;;
31336;SDS011;22846;42.654;23.314;2023-08-24T08:44:15;10.40;;;8.90;;
31336;SDS011;22846;42.654;23.314;2023-08-24T08:46:41;11.27;;;8.88;;
31336;SDS011;22846;42.654;23.314;2023-08-24T08:49:08;10.52;;;8.48;;
31336;SDS011;22846;42.654;23.314;2023-08-24T08:51:37;9.57;;;8.48;;
31336;SDS011;22846;42.654;23.314;2023-08-24T08:54:03;9.93;;;8.35;;
31336;SDS011;22846;42.654;23.314;2023-08-24T08:56:30;9.80;;;8.18;;
31336;SDS011;22846;42.654;23.314;2023-08-24T08:58:56;9.88;;;8.40;;
31336;SDS011;22846;42.654;23.314;2023-08-24T09:01:25;11.20;;;8.57;;
31336;SDS011;22846;42.654;23.314;2023-08-24T09:03:51;10.70;;;8.52;;
31336;SDS011;22846;42.654;23.314;2023-08-24T09:06:18;12.55;;;8.48;;
31336;SDS011;22846;42.654;23.314;2023-08-24T09:08:44;12.07;;;8.20;;
31336;SDS011;22846;42.654;23.314;2023-08-24T09:11:10;9.70;;;8.27;;
31336;SDS011;22846;42.654;23.314;2023-08-24T09:13:35;9.25;;;8.15;;
31336;SDS011;22846;42.654;23.314;2023-08-24T09:16:07;9.45;;;7.75;;
31336;SDS011;22846;42.654;23.314;2023-08-24T09:18:34;9.20;;;7.78;;
31336;SDS011;22846;42.654;23.314;2023-08-24T09:21:07;10.50;;;8.13;;
31336;SDS011;22846;42.654;23.314;2023-08-24T09:23:37;9.40;;;7.72;;
31336;SDS011;22846;42.654;23.314;2023-08-24T09:26:03;8.65;;;7.75;;
31336;SDS011;22846;42.654;23.314;2023-08-24T09:28:30;11.30;;;8.27;;
31336;SDS011;22846;42.654;23.314;2023-08-24T09:30:55;9.10;;;8.20;;
31336;SDS011;22846;42.654;23.314;2023-08-24T09:33:21;9.10;;;7.97;;
31336;SDS011;22846;42.654;23.314;2023-08-24T09:35:51;9.25;;;8.13;;
31336;SDS011;22846;42.654;23.314;2023-08-24T09:38:26;12.27;;;7.75;;
31336;SDS011;22846;42.654;23.314;2023-08-24T09:40:52;9.43;;;8.23;;
31336;SDS011;22846;42.654;23.314;2023-08-24T09:43:18;9.23;;;8.02;;
31336;SDS011;22846;42.654;23.314;2023-08-24T09:45:51;9.05;;;7.53;;
31336;SDS011;22846;42.654;23.314;2023-08-24T09:48:17;8.67;;;7.07;;
31336;SDS011;22846;42.654;23.314;2023-08-24T09:50:44;8.85;;;7.70;;
31336;SDS011;22846;42.654;23.314;2023-08-24T09:53:14;9.15;;;7.68;;
31336;SDS011;22846;42.654;23.314;2023-08-24T09:55:43;8.65;;;7.70;;
31336;SDS011;22846;42.654;23.314;2023-08-24T09:58:14;9.27;;;7.90;;
31336;SDS011;22846;42.654;23.314;2023-08-24T10:00:40;8.60;;;7.43;;
31336;SDS011;22846;42.654;23.314;2023-08-24T10:03:08;9.07;;;8.18;;
31336;SDS011;22846;42.654;23.314;2023-08-24T10:05:36;8.52;;;7.68;;
31336;SDS011;22846;42.654;23.314;2023-08-24T10:08:03;8.60;;;7.38;;
31336;SDS011;22846;42.654;23.314;2023-08-24T10:10:32;7.78;;;7.05;;
31336;SDS011;22846;42.654;23.314;2023-08-24T10:13:00;9.13;;;8.23;;
31336;SDS011;22846;42.654;23.314;2023-08-24T10:15:34;8.80;;;7.47;;
31336;SDS011;22846;42.654;23.314;2023-08-24T10:18:02;8.88;;;7.40;;
31336;SDS011;22846;42.654;23.314;2023-08-24T10:20:28;9.05;;;7.90;;
31336;SDS011;22846;42.654;23.314;2023-08-24T10:22:55;9.30;;;7.85;;
31336;SDS011;22846;42.654;23.314;2023-08-24T10:25:22;8.88;;;7.88;;
31336;SDS011;22846;42.654;23.314;2023-08-24T10:27:49;10.70;;;7.97;;
31336;SDS011;22846;42.654;23.314;2023-08-24T10:30:15;9.80;;;7.65;;
31336;SDS011;22846;42.654;23.314;2023-08-24T10:32:42;9.27;;;7.97;;
31336;SDS011;22846;42.654;23.314;2023-08-24T10:35:10;9.38;;;8.38;;
31336;SDS011;22846;42.654;23.314;2023-08-24T10:37:36;9.68;;;8.07;;
31336;SDS011;22846;42.654;23.314;2023-08-24T10:40:02;8.55;;;7.63;;
31336;SDS011;22846;42.654;23.314;2023-08-24T10:42:42;9.45;;;8.38;;
31336;SDS011;22846;42.654;23.314;2023-08-24T10:45:09;8.45;;;7.55;;
31336;SDS011;22846;42.654;23.314;2023-08-24T10:47:43;9.00;;;8.02;;
31336;SDS011;22846;42.654;23.314;2023-08-24T10:50:10;9.20;;;8.10;;
31336;SDS011;22846;42.654;23.314;2023-08-24T10:52:37;8.60;;;7.70;;
31336;SDS011;22846;42.654;23.314;2023-08-24T10:55:04;9.15;;;8.00;;
31336;SDS011;22846;42.654;23.314;2023-08-24T10:57:55;8.48;;;7.57;;
31336;SDS011;22846;42.654;23.314;2023-08-24T11:00:22;9.40;;;8.00;;
31336;SDS011;22846;42.654;23.314;2023-08-24T11:02:51;8.52;;;7.55;;
31336;SDS011;22846;42.654;23.314;2023-08-24T11:15:38;9.05;;;8.07;;
31336;SDS011;22846;42.654;23.314;2023-08-24T11:20:46;8.20;;;7.40;;
31336;SDS011;22846;42.654;23.314;2023-08-24T11:23:14;8.68;;;7.78;;
31336;SDS011;22846;42.654;23.314;2023-08-24T11:25:41;8.27;;;7.47;;
31336;SDS011;22846;42.654;23.314;2023-08-24T11:28:06;8.38;;;7.57;;
31336;SDS011;22846;42.654;23.314;2023-08-24T11:30:32;8.45;;;7.57;;
31336;SDS011;22846;42.654;23.314;2023-08-24T11:32:58;8.38;;;7.57;;
31336;SDS011;22846;42.654;23.314;2023-08-24T11:35:24;8.50;;;7.68;;
31336;SDS011;22846;42.654;23.314;2023-08-24T11:37:53;9.27;;;7.82;;
31336;SDS011;22846;42.654;23.314;2023-08-24T11:40:22;11.10;;;7.90;;
31336;SDS011;22846;42.654;23.314;2023-08-24T11:42:55;9.00;;;7.95;;
31336;SDS011;22846;42.654;23.314;2023-08-24T11:45:21;10.55;;;7.95;;
31336;SDS011;22846;42.654;23.314;2023-08-24T11:47:47;9.20;;;8.07;;
31336;SDS011;22846;42.654;23.314;2023-08-24T11:50:13;10.25;;;8.00;;
31336;SDS011;22846;42.654;23.314;2023-08-24T11:52:39;10.95;;;7.68;;
31336;SDS011;22846;42.654;23.314;2023-08-24T11:55:05;8.13;;;7.32;;
31336;SDS011;22846;42.654;23.314;2023-08-24T11:57:35;8.68;;;7.40;;
31336;SDS011;22846;42.654;23.314;2023-08-24T12:00:02;8.27;;;7.38;;
31336;SDS011;22846;42.654;23.314;2023-08-24T12:02:29;11.88;;;7.75;;
31336;SDS011;22846;42.654;23.314;2023-08-24T12:04:55;8.27;;;7.47;;
31336;SDS011;22846;42.654;23.314;2023-08-24T12:07:21;9.20;;;8.10;;
31336;SDS011;22846;42.654;23.314;2023-08-24T12:09:46;8.57;;;7.57;;
31336;SDS011;22846;42.654;23.314;2023-08-24T12:12:12;9.73;;;8.07;;
31336;SDS011;22846;42.654;23.314;2023-08-24T12:14:45;9.00;;;8.02;;
31336;SDS011;22846;42.654;23.314;2023-08-24T12:17:11;8.63;;;7.72;;
31336;SDS011;22846;42.654;23.314;2023-08-24T12:19:41;8.45;;;7.32;;
31336;SDS011;22846;42.654;23.314;2023-08-24T12:22:12;8.55;;;7.65;;
31336;SDS011;22846;42.654;23.314;2023-08-24T12:24:44;8.65;;;7.75;;
31336;SDS011;22846;42.654;23.314;2023-08-24T12:27:17;8.98;;;7.82;;
31336;SDS011;22846;42.654;23.314;2023-08-24T12:29:47;8.85;;;7.95;;
31336;SDS011;22846;42.654;23.314;2023-08-24T12:32:12;8.23;;;7.43;;
31336;SDS011;22846;42.654;23.314;2023-08-24T12:34:40;8.43;;;7.55;;
31336;SDS011;22846;42.654;23.314;2023-08-24T12:37:05;8.43;;;7.53;;
31336;SDS011;22846;42.654;23.314;2023-08-24T12:39:39;8.77;;;7.88;;
31336;SDS011;22846;42.654;23.314;2023-08-24T12:42:05;8.40;;;7.53;;
31336;SDS011;22846;42.654;23.314;2023-08-24T12:44:31;8.55;;;7.65;;
31336;SDS011;22846;42.654;23.314;2023-08-24T12:46:56;8.02;;;7.22;;
31336;SDS011;22846;42.654;23.314;2023-08-24T12:49:22;10.07;;;7.90;;
31336;SDS011;22846;42.654;23.314;2023-08-24T12:51:47;8.27;;;7.47;;
31336;SDS011;22846;42.654;23.314;2023-08-24T12:54:13;8.48;;;7.65;;
31336;SDS011;22846;42.654;23.314;2023-08-24T12:56:41;8.40;;;7.60;;
31336;SDS011;22846;42.654;23.314;2023-08-24T12:59:07;8.15;;;7.30;;
31336;SDS011;22846;42.654;23.314;2023-08-24T13:01:33;9.52;;;7.35;;
31336;SDS011;22846;42.654;23.314;2023-08-24T13:03:58;7.85;;;7.03;;
31336;SDS011;22846;42.654;23.314;2023-08-24T13:06:23;8.23;;;7.43;;
31336;SDS011;22846;42.654;23.314;2023-08-24T13:08:49;7.90;;;6.90;;
31336;SDS011;22846;42.654;23.314;2023-08-24T13:11:15;7.57;;;6.80;;
31336;SDS011;22846;42.654;23.314;2023-08-24T13:13:40;8.38;;;7.57;;
31336;SDS011;22846;42.654;23.314;2023-08-24T13:16:06;8.45;;;7.50;;
31336;SDS011;22846;42.654;23.314;2023-08-24T13:18:31;8.57;;;7.07;;
31336;SDS011;22846;42.654;23.314;2023-08-24T13:20:57;8.02;;;7.22;;
31336;SDS011;22846;42.654;23.314;2023-08-24T13:23:22;8.55;;;7.65;;
31336;SDS011;22846;42.654;23.314;2023-08-24T13:25:48;8.25;;;7.45;;
31336;SDS011;22846;42.654;23.314;2023-08-24T13:28:13;7.75;;;6.95;;
31336;SDS011;22846;42.654;23.314;2023-08-24T13:30:38;9.02;;;6.97;;
31336;SDS011;22846;42.654;23.314;2023-08-24T13:33:05;8.00;;;7.07;;
31336;SDS011;22846;42.654;23.314;2023-08-24T13:35:31;8.48;;;7.00;;
31336;SDS011;22846;42.654;23.314;2023-08-24T13:37:57;7.68;;;6.95;;
31336;SDS011;22846;42.654;23.314;2023-08-24T13:40:22;7.75;;;6.53;;
31336;SDS011;22846;42.654;23.314;2023-08-24T13:42:48;7.28;;;6.57;;
31336;SDS011;22846;42.654;23.314;2023-08-24T13:45:13;8.52;;;7.22;;
31336;SDS011;22846;42.654;23.314;2023-08-24T13:47:39;7.78;;;6.97;;
31336;SDS011;22846;42.654;23.314;2023-08-24T13:50:04;8.00;;;7.20;;
31336;SDS011;22846;42.654;23.314;2023-08-24T13:52:30;8.32;;;7.20;;
31336;SDS011;22846;42.654;23.314;2023-08-24T13:54:55;6.72;;;6.13;;
31336;SDS011;22846;42.654;23.314;2023-08-24T13:57:21;7.70;;;6.95;;
31336;SDS011;22846;42.654;23.314;2023-08-24T13:59:46;7.78;;;6.97;;
31336;SDS011;22846;42.654;23.314;2023-08-24T14:02:11;7.95;;;7.03;;
31336;SDS011;22846;42.654;23.314;2023-08-24T14:04:37;7.38;;;6.68;;
31336;SDS011;22846;42.654;23.314;2023-08-24T14:07:03;8.10;;;7.30;;
31336;SDS011;22846;42.654;23.314;2023-08-24T14:09:29;7.47;;;6.78;;
31336;SDS011;22846;42.654;23.314;2023-08-24T14:11:54;7.50;;;6.80;;
31336;SDS011;22846;42.654;23.314;2023-08-24T14:14:19;7.40;;;6.70;;
31336;SDS011;22846;42.654;23.314;2023-08-24T14:16:45;8.10;;;7.00;;
31336;SDS011;22846;42.654;23.314;2023-08-24T14:19:11;7.45;;;6.63;;
31336;SDS011;22846;42.654;23.314;2023-08-24T14:21:36;7.18;;;6.47;;
31336;SDS011;22846;42.654;23.314;2023-08-24T14:24:02;7.80;;;7.00;;
31336;SDS011;22846;42.654;23.314;2023-08-24T14:26:27;7.50;;;6.72;;
31336;SDS011;22846;42.654;23.314;2023-08-24T14:28:57;8.07;;;6.93;;
31336;SDS011;22846;42.654;23.314;2023-08-24T14:31:23;7.35;;;6.65;;
31336;SDS011;22846;42.654;23.314;2023-08-24T14:33:51;8.50;;;6.97;;
31336;SDS011;22846;42.654;23.314;2023-08-24T14:36:17;16.73;;;7.22;;
31336;SDS011;22846;42.654;23.314;2023-08-24T14:38:43;13.70;;;7.45;;
31336;SDS011;22846;42.654;23.314;2023-08-24T14:41:09;9.25;;;6.43;;